createdAt,value
2018-11-13T00:00:30.516Z,2.80
2018-11-13T00:02:59.868Z,2.20
2018-11-13T00:05:28.813Z,2.50
2018-11-13T00:07:57.600Z,2.30
2018-11-13T00:10:26.195Z,2.87
2018-11-13T00:12:54.849Z,2.50
2018-11-13T00:15:23.554Z,2.57
2018-11-13T00:17:52.191Z,2.17
2018-11-13T00:20:20.933Z,3.40
2018-11-13T00:22:49.468Z,2.97
2018-11-13T00:25:19.102Z,2.40
2018-11-13T00:27:47.665Z,2.47
2018-11-13T00:30:22.488Z,2.53
2018-11-13T00:32:51.513Z,2.30
2018-11-13T00:35:20.816Z,2.17
2018-11-13T00:37:49.924Z,2.30
2018-11-13T00:40:18.841Z,2.50
2018-11-13T00:42:47.966Z,2.20
2018-11-13T00:45:16.915Z,1.93
2018-11-13T00:47:45.497Z,2.50
2018-11-13T00:50:16.015Z,1.87
2018-11-13T00:52:45.659Z,2.20
2018-11-13T00:55:14.404Z,1.97
2018-11-13T00:57:43.055Z,1.93
2018-11-13T01:00:13.841Z,2.13
2018-11-13T01:02:42.801Z,1.93
2018-11-13T01:05:13.272Z,1.67
2018-11-13T01:07:42.341Z,2.13
2018-11-13T01:10:12.646Z,2.03
2018-11-13T01:12:41.945Z,2.30
2018-11-13T01:15:12.195Z,2.60
2018-11-13T01:17:41.104Z,2.30
2018-11-13T01:20:09.955Z,2.50
2018-11-13T01:22:38.616Z,2.00
2018-11-13T01:25:08.345Z,2.13
2018-11-13T01:27:37.042Z,2.07
2018-11-13T01:30:07.635Z,2.53
2018-11-13T01:32:38.391Z,2.20
2018-11-13T01:35:09.157Z,2.60
2018-11-13T01:37:37.775Z,2.63
2018-11-13T01:40:11.125Z,2.20
2018-11-13T01:42:40.276Z,2.40
2018-11-13T01:45:10.736Z,2.67
2018-11-13T01:47:39.404Z,2.13
2018-11-13T01:50:08.645Z,2.20
2018-11-13T01:52:37.486Z,2.20
2018-11-13T01:55:07.889Z,2.30
2018-11-13T01:57:36.798Z,2.63
2018-11-13T02:00:11.815Z,2.90
2018-11-13T02:02:40.389Z,2.50
2018-11-13T02:05:08.926Z,2.83
2018-11-13T02:07:37.558Z,3.40
2018-11-13T02:10:06.356Z,3.70
2018-11-13T02:12:35.052Z,3.73
2018-11-13T02:15:03.807Z,4.13
2018-11-13T02:17:32.369Z,2.80
2018-11-13T02:20:00.906Z,2.17
2018-11-13T02:22:29.454Z,1.50
2018-11-13T02:24:58.158Z,1.03
2018-11-13T02:27:26.725Z,1.40
2018-11-13T02:29:55.275Z,1.00
2018-11-13T02:32:23.977Z,1.33
2018-11-13T02:34:52.542Z,1.60
2018-11-13T02:37:21.093Z,1.13
2018-11-13T02:39:49.744Z,0.97
2018-11-13T02:42:18.401Z,0.70
2018-11-13T02:44:46.945Z,0.90
2018-11-13T02:47:15.501Z,0.87
2018-11-13T02:49:44.255Z,0.63
2018-11-13T02:52:12.821Z,1.00
2018-11-13T02:54:41.474Z,0.73
2018-11-13T02:57:10.205Z,0.60
2018-11-13T02:59:38.944Z,0.70
2018-11-13T03:02:07.910Z,0.87
2018-11-13T03:04:36.522Z,1.20
2018-11-13T03:07:05.198Z,0.80
2018-11-13T03:09:33.804Z,0.70
2018-11-13T03:12:02.334Z,0.97
2018-11-13T03:14:30.909Z,0.90
2018-11-13T03:16:59.571Z,0.90
2018-11-13T03:19:28.157Z,0.87
2018-11-13T03:21:56.695Z,1.00
2018-11-13T03:24:25.245Z,1.00
2018-11-13T03:26:53.794Z,1.20
2018-11-13T03:29:22.382Z,0.93
2018-11-13T03:31:50.959Z,1.30
2018-11-13T03:34:19.610Z,1.13
2018-11-13T03:36:48.122Z,1.03
2018-11-13T03:39:16.691Z,0.90
2018-11-13T03:41:45.286Z,1.00
2018-11-13T03:44:13.851Z,1.00
2018-11-13T03:46:42.361Z,1.00
2018-11-13T03:49:10.944Z,1.00
2018-11-13T03:51:39.529Z,0.90
2018-11-13T03:54:08.076Z,0.80
2018-11-13T03:56:36.629Z,0.77
2018-11-13T03:59:05.386Z,0.70
2018-11-13T04:01:34.036Z,0.70
2018-11-13T04:04:06.802Z,0.63
2018-11-13T04:06:35.332Z,0.90
2018-11-13T04:09:04.349Z,0.60
2018-11-13T04:11:32.988Z,0.60
2018-11-13T04:14:01.518Z,0.60
2018-11-13T04:16:30.133Z,0.60
2018-11-13T04:18:58.768Z,0.50
2018-11-13T04:21:27.330Z,0.60
2018-11-13T04:23:55.912Z,0.73
2018-11-13T04:26:24.790Z,0.50
2018-11-13T04:28:53.318Z,0.60
2018-11-13T04:31:21.812Z,0.50
2018-11-13T04:33:50.332Z,0.60
2018-11-13T04:36:18.916Z,0.60
2018-11-13T04:38:47.470Z,0.50
2018-11-13T04:41:16.038Z,0.60
2018-11-13T04:43:44.694Z,0.50
2018-11-13T04:46:13.397Z,0.50
2018-11-13T04:48:41.961Z,0.57
2018-11-13T04:51:10.529Z,0.60
2018-11-13T04:53:39.153Z,0.60
2018-11-13T04:56:07.876Z,0.47
2018-11-13T04:58:36.431Z,0.50
2018-11-13T05:01:05.123Z,0.50
2018-11-13T05:03:33.692Z,0.60
2018-11-13T05:06:02.830Z,0.50
2018-11-13T05:08:31.477Z,0.40
2018-11-13T05:11:00.104Z,0.40
2018-11-13T05:13:28.689Z,0.60
2018-11-13T05:15:57.277Z,0.50
2018-11-13T05:18:26.037Z,0.50
2018-11-13T05:20:54.661Z,0.47
2018-11-13T05:23:23.338Z,0.60
2018-11-13T05:25:53.531Z,0.57
2018-11-13T05:28:22.208Z,0.53
2018-11-13T05:30:50.804Z,0.50
2018-11-13T05:33:19.612Z,0.50
2018-11-13T05:35:52.895Z,0.80
2018-11-13T05:38:21.402Z,0.47
2018-11-13T05:40:49.934Z,0.60
2018-11-13T05:43:18.466Z,0.70
2018-11-13T05:45:47.082Z,0.50
2018-11-13T05:48:16.039Z,0.50
2018-11-13T05:50:44.578Z,0.60
2018-11-13T05:53:13.371Z,0.60
2018-11-13T05:55:42.077Z,0.67
2018-11-13T05:58:10.648Z,0.60
2018-11-13T06:00:39.303Z,0.70
2018-11-13T06:03:07.959Z,0.70
2018-11-13T06:05:36.456Z,0.80
2018-11-13T06:08:05.457Z,0.80
2018-11-13T06:10:34.057Z,0.70
2018-11-13T06:13:02.814Z,0.77
2018-11-13T06:15:31.412Z,0.70
2018-11-13T06:18:00.085Z,0.67
2018-11-13T06:20:28.693Z,0.60
2018-11-13T06:22:57.373Z,0.60
2018-11-13T06:25:25.992Z,0.83
2018-11-13T06:27:54.619Z,0.70
2018-11-13T06:30:24.540Z,1.23
2018-11-13T06:32:53.345Z,0.70
2018-11-13T06:35:21.960Z,1.10
2018-11-13T06:37:50.527Z,0.90
2018-11-13T06:40:19.244Z,0.70
2018-11-13T06:42:47.856Z,1.00
2018-11-13T06:45:20.093Z,1.23
2018-11-13T06:47:49.291Z,0.87
2018-11-13T06:50:17.953Z,0.90
2018-11-13T06:52:47.471Z,1.10
2018-11-13T06:55:21.080Z,1.10
2018-11-13T06:57:49.610Z,1.40
2018-11-13T07:00:18.834Z,0.90
2018-11-13T07:02:47.433Z,1.30
2018-11-13T07:05:16.884Z,1.00
2018-11-13T07:07:45.815Z,1.00
2018-11-13T07:10:15.759Z,1.17
2018-11-13T07:12:45.719Z,0.80
2018-11-13T07:15:15.844Z,0.80
2018-11-13T07:17:45.874Z,1.10
2018-11-13T07:20:15.296Z,0.90
2018-11-13T07:22:44.093Z,1.07
2018-11-13T07:25:13.327Z,0.70
2018-11-13T07:27:42.760Z,0.90
2018-11-13T07:30:13.106Z,0.80
2018-11-13T07:32:42.042Z,1.40
2018-11-13T07:35:12.067Z,2.20
2018-11-13T07:37:43.524Z,2.20
2018-11-13T07:40:12.116Z,1.80
2018-11-13T07:42:40.702Z,1.10
2018-11-13T07:45:11.601Z,1.03
2018-11-13T07:47:40.928Z,1.13
2018-11-13T07:50:10.561Z,1.00
2018-11-13T07:52:39.173Z,0.90
2018-11-13T07:55:08.631Z,1.10
2018-11-13T07:57:37.279Z,0.90
2018-11-13T08:00:11.257Z,0.90
2018-11-13T08:02:40.357Z,0.77
2018-11-13T08:05:08.986Z,0.87
2018-11-13T08:07:37.580Z,0.90
2018-11-13T08:10:07.120Z,0.80
2018-11-13T08:12:35.700Z,1.00
2018-11-13T08:15:04.491Z,0.80
2018-11-13T08:17:33.081Z,0.80
2018-11-13T08:20:01.744Z,1.00
2018-11-13T08:22:30.430Z,1.00
2018-11-13T08:24:59.189Z,0.97
2018-11-13T08:27:27.740Z,0.73
2018-11-13T08:29:56.382Z,0.90
2018-11-13T08:32:25.023Z,0.60
2018-11-13T08:34:53.666Z,0.63
2018-11-13T08:37:22.284Z,0.70
2018-11-13T08:39:50.879Z,0.80
2018-11-13T08:42:19.555Z,0.60
2018-11-13T08:44:48.182Z,0.70
2018-11-13T08:47:16.764Z,0.87
2018-11-13T08:49:45.347Z,1.10
2018-11-13T08:52:14.018Z,0.80
2018-11-13T08:54:42.633Z,0.87
2018-11-13T08:57:11.266Z,0.90
2018-11-13T08:59:40.048Z,0.97
2018-11-13T09:02:08.613Z,0.77
2018-11-13T09:04:37.244Z,0.67
2018-11-13T09:07:06.065Z,0.90
2018-11-13T09:09:34.619Z,0.93
2018-11-13T09:12:03.424Z,0.73
2018-11-13T09:14:32.037Z,0.90
2018-11-13T09:17:01.793Z,0.80
2018-11-13T09:19:30.464Z,0.60
2018-11-13T09:21:58.916Z,0.80
2018-11-13T09:24:27.563Z,1.00
2018-11-13T09:26:56.255Z,0.87
2018-11-13T09:29:24.810Z,0.70
2018-11-13T09:31:53.455Z,0.70
2018-11-13T09:34:22.036Z,0.60
2018-11-13T09:36:50.581Z,0.80
2018-11-13T09:39:19.155Z,0.70
2018-11-13T09:41:47.841Z,0.70
2018-11-13T09:44:16.420Z,0.80
2018-11-13T09:46:44.985Z,0.77
2018-11-13T09:49:13.573Z,0.77
2018-11-13T09:51:42.182Z,0.80
2018-11-13T09:54:10.799Z,0.80
2018-11-13T09:56:39.404Z,0.83
2018-11-13T09:59:08.145Z,0.80
2018-11-13T10:01:37.070Z,0.97
2018-11-13T10:04:06.592Z,0.87
2018-11-13T10:06:34.494Z,0.80
2018-11-13T10:09:03.252Z,0.60
2018-11-13T10:11:31.847Z,0.73
2018-11-13T10:14:00.409Z,0.60
2018-11-13T10:16:28.987Z,0.70
2018-11-13T10:18:57.572Z,0.90
2018-11-13T10:21:26.226Z,0.80
2018-11-13T10:23:54.905Z,1.00
2018-11-13T10:26:23.680Z,0.90
2018-11-13T10:28:52.118Z,0.77
2018-11-13T10:31:20.728Z,0.80
2018-11-13T10:33:49.238Z,0.90
2018-11-13T10:36:17.776Z,0.73
2018-11-13T10:38:46.435Z,0.80
2018-11-13T10:41:14.943Z,0.70
2018-11-13T10:43:43.540Z,1.20
2018-11-13T10:46:12.278Z,0.90
2018-11-13T10:48:40.891Z,0.80
2018-11-13T10:51:09.420Z,0.80
2018-11-13T10:53:37.957Z,0.73
2018-11-13T10:56:07.801Z,0.83
2018-11-13T10:58:36.353Z,1.33
2018-11-13T11:01:10.681Z,0.80
2018-11-13T11:03:42.177Z,1.10
2018-11-13T11:06:10.658Z,0.90
2018-11-13T11:08:39.186Z,1.10
2018-11-13T11:11:07.750Z,1.00
2018-11-13T11:13:36.389Z,1.20
2018-11-13T11:16:04.932Z,0.70
2018-11-13T11:18:33.521Z,0.90
2018-11-13T11:21:01.990Z,0.77
2018-11-13T11:23:30.581Z,0.80
2018-11-13T11:25:59.056Z,0.80
2018-11-13T11:28:27.695Z,0.67
2018-11-13T11:30:56.233Z,0.50
2018-11-13T11:33:24.672Z,0.67
2018-11-13T11:35:53.175Z,0.50
2018-11-13T11:38:21.752Z,0.57
2018-11-13T11:40:50.246Z,0.60
2018-11-13T11:43:18.841Z,0.50
2018-11-13T11:45:47.423Z,0.50
2018-11-13T11:48:15.976Z,0.50
2018-11-13T11:50:44.508Z,0.50
2018-11-13T11:53:13.143Z,0.40
2018-11-13T11:55:41.640Z,0.50
2018-11-13T11:58:10.221Z,0.60
2018-11-13T12:00:38.890Z,0.57
2018-11-13T12:03:07.404Z,0.50
2018-11-13T12:05:35.900Z,0.70
2018-11-13T12:08:04.506Z,2.70
2018-11-13T12:10:33.037Z,0.50
2018-11-13T12:13:01.614Z,0.50
2018-11-13T12:15:30.108Z,0.60
2018-11-13T12:17:58.624Z,0.63
2018-11-13T12:20:27.193Z,0.80
2018-11-13T12:22:55.709Z,0.50
2018-11-13T12:25:24.358Z,0.60
2018-11-13T12:27:52.864Z,0.50
2018-11-13T12:30:22.880Z,0.50
2018-11-13T12:32:52.213Z,0.50
2018-11-13T12:35:21.830Z,0.57
2018-11-13T12:37:50.441Z,0.60
2018-11-13T12:40:20.561Z,0.60
2018-11-13T12:42:49.705Z,0.50
2018-11-13T12:45:18.755Z,0.50
2018-11-13T12:47:47.686Z,0.50
2018-11-13T12:50:17.497Z,0.50
2018-11-13T12:52:46.097Z,0.70
2018-11-13T12:55:19.009Z,0.57
2018-11-13T12:57:47.573Z,0.50
2018-11-13T13:00:20.232Z,0.50
2018-11-13T13:02:48.947Z,0.60
2018-11-13T13:05:17.548Z,0.50
2018-11-13T13:07:46.541Z,0.50
2018-11-13T13:10:16.336Z,0.50
2018-11-13T13:12:45.232Z,0.73
2018-11-13T13:15:15.454Z,0.60
2018-11-13T13:17:44.885Z,0.50
2018-11-13T13:20:16.910Z,0.60
2018-11-13T13:22:46.734Z,0.70
2018-11-13T13:25:16.497Z,0.50
2018-11-13T13:27:45.082Z,0.53
2018-11-13T13:30:19.157Z,0.60
2018-11-13T13:32:48.230Z,0.50
2018-11-13T13:36:02.363Z,0.50
2018-11-13T13:38:32.135Z,0.60
2018-11-13T13:41:01.741Z,0.60
2018-11-13T13:43:32.029Z,0.60
2018-11-13T13:46:00.706Z,0.70
2018-11-13T13:48:29.379Z,0.53
2018-11-13T13:50:58.732Z,0.60
2018-11-13T13:53:27.933Z,0.70
2018-11-13T13:55:56.629Z,0.70
2018-11-13T13:58:25.957Z,0.70
2018-11-13T14:00:55.434Z,0.57
2018-11-13T14:03:24.024Z,0.70
2018-11-13T14:05:53.637Z,0.60
2018-11-13T14:08:22.169Z,0.60
2018-11-13T14:10:50.689Z,0.60
2018-11-13T14:13:19.245Z,0.77
2018-11-13T14:15:47.857Z,0.70
2018-11-13T14:18:17.324Z,0.70
2018-11-13T14:20:46.250Z,0.60
2018-11-13T14:23:14.786Z,0.80
2018-11-13T14:25:43.345Z,0.67
2018-11-13T14:28:11.880Z,1.00
2018-11-13T14:30:40.449Z,0.70
2018-11-13T14:33:10.232Z,0.60
2018-11-13T14:35:38.934Z,0.70
2018-11-13T14:38:07.559Z,0.80
2018-11-13T14:40:38.801Z,0.70
2018-11-13T14:43:07.847Z,0.70
2018-11-13T14:45:36.518Z,0.70
2018-11-13T14:48:05.435Z,0.57
2018-11-13T14:50:35.041Z,0.77
2018-11-13T14:53:03.755Z,0.80
2018-11-13T14:55:37.522Z,0.90
2018-11-13T14:58:07.330Z,1.47
2018-11-13T15:00:36.742Z,0.70
2018-11-13T15:03:06.624Z,0.70
2018-11-13T15:05:35.505Z,1.10
2018-11-13T15:08:05.354Z,0.97
2018-11-13T15:10:39.687Z,0.80
2018-11-13T15:13:08.880Z,0.80
2018-11-13T15:15:37.385Z,0.73
2018-11-13T15:18:06.771Z,0.70
2018-11-13T15:20:35.319Z,0.80
2018-11-13T15:23:03.985Z,0.70
2018-11-13T15:25:32.590Z,0.63
2018-11-13T15:28:01.111Z,0.80
2018-11-13T15:30:31.275Z,1.50
2018-11-13T15:33:01.282Z,0.90
2018-11-13T15:35:29.826Z,0.97
2018-11-13T15:37:58.472Z,1.00
2018-11-13T15:40:28.723Z,0.90
2018-11-13T15:42:57.349Z,0.80
2018-11-13T15:45:26.640Z,1.00
2018-11-13T15:47:56.299Z,1.27
2018-11-13T15:50:27.160Z,0.90
2018-11-13T15:52:56.129Z,1.00
2018-11-13T15:55:24.701Z,0.80
2018-11-13T15:57:53.590Z,1.00
2018-11-13T16:00:29.585Z,1.00
2018-11-13T16:02:59.471Z,1.70
2018-11-13T16:05:38.340Z,1.07
2018-11-13T16:08:07.641Z,1.00
2018-11-13T16:10:36.321Z,1.30
2018-11-13T16:13:05.231Z,1.53
2018-11-13T16:15:33.867Z,1.80
2018-11-13T16:18:03.924Z,1.90
2018-11-13T16:20:32.599Z,1.57
2018-11-13T16:23:01.461Z,0.93
2018-11-13T16:25:30.089Z,1.27
2018-11-13T16:27:58.690Z,1.60
2018-11-13T16:30:28.992Z,1.20
2018-11-13T16:32:57.692Z,1.20
2018-11-13T16:35:27.276Z,1.10
2018-11-13T16:37:56.905Z,1.93
2018-11-13T16:40:27.641Z,1.60
2018-11-13T16:42:56.268Z,2.13
2018-11-13T16:45:25.591Z,1.53
2018-11-13T16:47:54.568Z,2.20
2018-11-13T16:50:38.773Z,1.80
2018-11-13T16:53:07.480Z,2.50
2018-11-13T16:55:41.564Z,2.33
2018-11-13T16:58:11.933Z,2.03
2018-11-13T17:00:40.591Z,2.03
2018-11-13T17:03:09.123Z,2.17
2018-11-13T17:05:37.949Z,2.20
2018-11-13T17:08:06.518Z,2.07
2018-11-13T17:10:35.185Z,1.70
2018-11-13T17:13:03.846Z,2.07
2018-11-13T17:15:32.877Z,2.40
2018-11-13T17:18:02.578Z,2.37
2018-11-13T17:20:31.364Z,2.40
2018-11-13T17:22:59.980Z,2.40
2018-11-13T17:25:29.974Z,1.80
2018-11-13T17:27:58.604Z,2.10
2018-11-13T17:30:28.748Z,2.40
2018-11-13T17:32:58.573Z,2.47
2018-11-13T17:35:28.185Z,3.10
2018-11-13T17:37:57.529Z,3.40
2018-11-13T17:40:27.520Z,4.40
2018-11-13T17:42:57.265Z,3.90
2018-11-13T17:45:33.167Z,3.27
2018-11-13T17:48:01.743Z,2.90
2018-11-13T17:50:40.442Z,3.23
2018-11-13T17:53:10.547Z,5.93
2018-11-13T17:55:40.645Z,3.33
2018-11-13T17:58:12.060Z,2.80
2018-11-13T18:00:43.695Z,2.40
2018-11-13T18:03:14.178Z,2.80
2018-11-13T18:05:44.601Z,2.47
2018-11-13T18:08:14.112Z,1.63
2018-11-13T18:10:44.843Z,2.43
2018-11-13T18:13:13.644Z,2.27
2018-11-13T18:15:42.340Z,2.30
2018-11-13T18:18:11.144Z,2.50
2018-11-13T18:20:40.968Z,2.60
2018-11-13T18:23:10.077Z,2.30
2018-11-13T18:25:38.837Z,3.00
2018-11-13T18:28:07.852Z,2.67
2018-11-13T18:30:41.322Z,2.40
2018-11-13T18:33:10.797Z,2.50
2018-11-13T18:35:40.715Z,2.97
2018-11-13T18:38:12.860Z,2.23
2018-11-13T18:40:41.890Z,2.10
2018-11-13T18:43:11.034Z,2.13
2018-11-13T18:45:40.933Z,2.30
2018-11-13T18:48:10.109Z,4.93
2018-11-13T18:50:42.522Z,4.80
2018-11-13T18:53:11.377Z,5.27
2018-11-13T18:55:40.274Z,5.23
2018-11-13T18:58:08.973Z,4.40
2018-11-13T19:00:39.514Z,4.10
2018-11-13T19:03:09.768Z,2.60
2018-11-13T19:05:38.856Z,2.10
2018-11-13T19:08:08.356Z,2.30
2018-11-13T19:10:39.261Z,2.40
2018-11-13T19:13:16.698Z,2.33
2018-11-13T19:15:47.464Z,2.50
2018-11-13T19:18:16.992Z,3.10
2018-11-13T19:20:46.503Z,3.80
2018-11-13T19:23:17.430Z,3.90
2018-11-13T19:25:46.698Z,2.93
2018-11-13T19:28:16.602Z,3.17
2018-11-13T19:30:45.359Z,2.80
2018-11-13T19:33:14.474Z,3.43
2018-11-13T19:35:43.544Z,3.10
2018-11-13T19:38:12.477Z,2.87
2018-11-13T19:40:41.282Z,3.00
2018-11-13T19:43:11.315Z,3.20
2018-11-13T19:45:40.024Z,3.53
2018-11-13T19:48:08.748Z,3.20
2018-11-13T19:50:37.934Z,3.90
2018-11-13T19:53:07.362Z,4.00
2018-11-13T19:55:36.769Z,4.97
2018-11-13T19:58:06.163Z,4.70
2018-11-13T20:00:36.672Z,4.83
2018-11-13T20:03:07.004Z,4.00
2018-11-13T20:05:36.162Z,4.23
2018-11-13T20:08:06.138Z,4.20
2018-11-13T20:10:36.090Z,3.43
2018-11-13T20:13:06.183Z,4.33
2018-11-13T20:15:35.910Z,3.47
2018-11-13T20:18:05.165Z,3.30
2018-11-13T20:20:34.899Z,3.60
2018-11-13T20:23:05.348Z,3.30
2018-11-13T20:25:35.025Z,2.90
2018-11-13T20:28:04.025Z,2.77
2018-11-13T20:30:34.453Z,2.60
2018-11-13T20:33:03.487Z,2.33
2018-11-13T20:35:32.570Z,2.00
2018-11-13T20:38:02.011Z,2.33
2018-11-13T20:40:33.244Z,2.80
2018-11-13T20:43:03.263Z,2.47
2018-11-13T20:45:32.256Z,2.27
2018-11-13T20:48:01.180Z,2.87
2018-11-13T20:50:31.366Z,2.30
2018-11-13T20:53:00.616Z,2.77
2018-11-13T20:55:30.520Z,3.13
2018-11-13T20:57:59.559Z,3.47
2018-11-13T21:00:31.810Z,3.40
2018-11-13T21:03:00.652Z,3.50
2018-11-13T21:05:29.582Z,3.93
2018-11-13T21:07:58.277Z,3.43
2018-11-13T21:10:35.543Z,3.30
2018-11-13T21:13:04.695Z,2.93
2018-11-13T21:15:33.278Z,2.67
2018-11-13T21:18:01.888Z,2.57
2018-11-13T21:20:30.477Z,2.90
2018-11-13T21:22:59.042Z,3.20
2018-11-13T21:25:28.106Z,4.40
2018-11-13T21:27:58.421Z,4.13
2018-11-13T21:30:27.628Z,4.40
2018-11-13T21:32:56.251Z,3.43
2018-11-13T21:35:25.002Z,3.80
2018-11-13T21:37:54.961Z,3.87
2018-11-13T21:40:24.881Z,4.00
2018-11-13T21:42:54.302Z,5.13
2018-11-13T21:45:23.716Z,2.63
2018-11-13T21:47:52.416Z,3.47
2018-11-13T21:50:22.348Z,4.37
2018-11-13T21:52:50.998Z,3.53
2018-11-13T21:55:20.681Z,4.50
2018-11-13T21:57:49.235Z,3.73
2018-11-13T22:00:26.159Z,4.30
2018-11-13T22:02:59.250Z,4.30
2018-11-13T22:05:28.792Z,5.20
2018-11-13T22:07:57.444Z,4.40
2018-11-13T22:10:27.057Z,5.50
2018-11-13T22:12:55.600Z,5.70
2018-11-13T22:15:25.343Z,6.10
2018-11-13T22:17:53.922Z,5.30
2018-11-13T22:20:23.350Z,5.10
2018-11-13T22:22:53.421Z,5.33
2018-11-13T22:25:23.504Z,4.47
2018-11-13T22:27:53.231Z,5.00
2018-11-13T22:30:23.096Z,4.77
2018-11-13T22:32:51.651Z,5.30
2018-11-13T22:35:21.121Z,5.10
2018-11-13T22:37:49.660Z,5.30
2018-11-13T22:40:19.456Z,5.57
2018-11-13T22:42:48.473Z,5.00
2018-11-13T22:45:18.536Z,4.80
2018-11-13T22:47:47.168Z,5.90
2018-11-13T22:50:18.915Z,7.93
2018-11-13T22:52:47.934Z,9.10
2018-11-13T22:55:17.530Z,7.37
2018-11-13T22:57:47.022Z,17.10
2018-11-13T23:00:19.847Z,18.97
2018-11-13T23:02:51.663Z,24.00
2018-11-13T23:05:20.337Z,24.80
2018-11-13T23:07:48.940Z,14.83
2018-11-13T23:10:18.077Z,17.57
2018-11-13T23:12:46.690Z,14.30
2018-11-13T23:15:17.837Z,12.13
2018-11-13T23:17:46.264Z,12.00
2018-11-13T23:20:16.107Z,7.80
2018-11-13T23:22:44.714Z,11.03
2018-11-13T23:25:14.461Z,6.60
2018-11-13T23:27:44.005Z,6.13
2018-11-13T23:30:18.615Z,4.83
2018-11-13T23:32:47.579Z,5.47
2018-11-13T23:35:16.374Z,5.23
2018-11-13T23:37:46.143Z,5.50
2018-11-13T23:40:15.963Z,5.37
2018-11-13T23:42:45.061Z,5.70
2018-11-13T23:45:14.691Z,7.60
2018-11-13T23:47:43.920Z,5.33
2018-11-13T23:50:12.660Z,5.10
2018-11-13T23:52:41.408Z,6.60
2018-11-13T23:55:11.550Z,5.23
2018-11-13T23:57:40.787Z,6.33
